Southern Tiare — E5U2082 — position and weather

sailwx.info

Track history (hours):
 
Tides and Currents Weather Stations Pressure Air Temp Water Temp Dewpoint Dewpoint Depression Visibility Wind Speed Wind Dir Waves Ship Positions

Southern Tiare

Last reported at 2015-Aug-26 02:33 UTC. Time now 2015-Sep-02 21:49 UTC.
Position S 36°21' E 174°57'.

Length 67 m; draft 3.5 m.

Type: Cargo ship. MMSI: 518132000.

Date/timePositionNaut miles runAvg speedWind from/ knotsBaromVisibWave heightAir tempDewpointWater temp
2015-Aug-26 02:33S 36°21' E 174°57'10 9.8
2015-Aug-26 01:33S 36°31' E 174°57'9 9.3
2015-Aug-26 00:33S 36°40' E 174°54'9 8.8
2015-Aug-25 23:34S 36°48' E 174°49'3 0.8
2015-Aug-25 19:24S 36°51' E 174°47'0 0.0
2015-Aug-25 18:30S 36°51' E 174°47'0 0.0
2015-Aug-25 17:30S 36°51' E 174°47'0 0.0
2015-Aug-25 16:33S 36°51' E 174°47'0 0.0
2015-Aug-25 15:33S 36°51' E 174°47'0 0.0
2015-Aug-25 14:30S 36°51' E 174°47'0 0.0
2015-Aug-25 13:30S 36°51' E 174°47'0 0.0
2015-Aug-25 12:33S 36°51' E 174°47'0 0.0
2015-Aug-25 11:30S 36°51' E 174°47'0 0.0
2015-Aug-25 10:30S 36°51' E 174°47'0 0.0
2015-Aug-25 09:30S 36°51' E 174°47'0 0.0
2015-Aug-25 08:30S 36°51' E 174°47'0 0.0
2015-Aug-25 07:18S 36°51' E 174°47'0 0.0
2015-Aug-25 06:30S 36°51' E 174°47'0 0.0
2015-Aug-25 05:12S 36°51' E 174°47'0 0.0
2015-Aug-25 04:30S 36°51' E 174°47'0 0.0
2015-Aug-25 03:30S 36°51' E 174°47'0 0.0
2015-Aug-25 02:18S 36°51' E 174°47'0 0.0
2015-Aug-25 01:30S 36°51' E 174°47'0 0.0
2015-Aug-24 21:18S 36°51' E 174°47'0 0.0
2015-Aug-24 19:18S 36°51' E 174°47'0 0.0
2015-Aug-24 18:33S 36°51' E 174°47'0 0.0
2015-Aug-24 17:33S 36°51' E 174°47'0 0.0
2015-Aug-24 16:27S 36°51' E 174°47'0 0.0
2015-Aug-24 15:33S 36°51' E 174°47'0 0.0
2015-Aug-24 14:30S 36°51' E 174°47'0 0.0
2015-Aug-24 10:18S 36°51' E 174°47'0 0.0
2015-Aug-24 09:30S 36°51' E 174°47'0 0.0
2015-Aug-24 08:33S 36°51' E 174°47'0 0.0
2015-Aug-24 07:30S 36°51' E 174°47'0 0.0
2015-Aug-24 06:30S 36°51' E 174°47'0 0.0
2015-Aug-24 05:24S 36°51' E 174°47'0 0.0
2015-Aug-24 04:33S 36°51' E 174°47'0 0.0
2015-Aug-24 03:33S 36°51' E 174°47'0 0.0
2015-Aug-24 02:33S 36°51' E 174°47'0 0.1
2015-Aug-24 01:33S 36°51' E 174°47'7 6.6
2015-Aug-24 00:34S 36°45' E 174°50'7 7.1
2015-Aug-23 23:33S 36°39' E 174°56'  
Track history (hours):
 
Tides and Currents Weather Stations Pressure Air Temp Water Temp Dewpoint Dewpoint Depression Visibility Wind Speed Wind Dir Waves Ship Positions

Southern Tiare

Last reported at 2015-Aug-26 02:33 UTC. Time now 2015-Sep-02 21:49 UTC.
Position S 36°21' E 174°57'.

Length 67 m; draft 3.5 m.

Type: Cargo ship. MMSI: 518132000.

Date/timePositionNaut miles runAvg speedWind from/ knotsBaromVisibWave heightAir tempDewpointWater temp
2015-Aug-26 02:33S 36°21' E 174°57'10 9.8
2015-Aug-26 01:33S 36°31' E 174°57'9 9.3
2015-Aug-26 00:33S 36°40' E 174°54'9 8.8
2015-Aug-25 23:34S 36°48' E 174°49'3 0.8
2015-Aug-25 19:24S 36°51' E 174°47'0 0.0
2015-Aug-25 18:30S 36°51' E 174°47'0 0.0
2015-Aug-25 17:30S 36°51' E 174°47'0 0.0
2015-Aug-25 16:33S 36°51' E 174°47'0 0.0
2015-Aug-25 15:33S 36°51' E 174°47'0 0.0
2015-Aug-25 14:30S 36°51' E 174°47'0 0.0
2015-Aug-25 13:30S 36°51' E 174°47'0 0.0
2015-Aug-25 12:33S 36°51' E 174°47'0 0.0
2015-Aug-25 11:30S 36°51' E 174°47'0 0.0
2015-Aug-25 10:30S 36°51' E 174°47'0 0.0
2015-Aug-25 09:30S 36°51' E 174°47'0 0.0
2015-Aug-25 08:30S 36°51' E 174°47'0 0.0
2015-Aug-25 07:18S 36°51' E 174°47'0 0.0
2015-Aug-25 06:30S 36°51' E 174°47'0 0.0
2015-Aug-25 05:12S 36°51' E 174°47'0 0.0
2015-Aug-25 04:30S 36°51' E 174°47'0 0.0
2015-Aug-25 03:30S 36°51' E 174°47'0 0.0
2015-Aug-25 02:18S 36°51' E 174°47'0 0.0
2015-Aug-25 01:30S 36°51' E 174°47'0 0.0
2015-Aug-24 21:18S 36°51' E 174°47'0 0.0
2015-Aug-24 19:18S 36°51' E 174°47'0 0.0
2015-Aug-24 18:33S 36°51' E 174°47'0 0.0
2015-Aug-24 17:33S 36°51' E 174°47'0 0.0
2015-Aug-24 16:27S 36°51' E 174°47'0 0.0
2015-Aug-24 15:33S 36°51' E 174°47'0 0.0
2015-Aug-24 14:30S 36°51' E 174°47'0 0.0
2015-Aug-24 10:18S 36°51' E 174°47'0 0.0
2015-Aug-24 09:30S 36°51' E 174°47'0 0.0
2015-Aug-24 08:33S 36°51' E 174°47'0 0.0
2015-Aug-24 07:30S 36°51' E 174°47'0 0.0
2015-Aug-24 06:30S 36°51' E 174°47'0 0.0
2015-Aug-24 05:24S 36°51' E 174°47'0 0.0
2015-Aug-24 04:33S 36°51' E 174°47'0 0.0
2015-Aug-24 03:33S 36°51' E 174°47'0 0.0
2015-Aug-24 02:33S 36°51' E 174°47'0 0.1
2015-Aug-24 01:33S 36°51' E 174°47'7 6.6
2015-Aug-24 00:34S 36°45' E 174°50'7 7.1
2015-Aug-23 23:33S 36°39' E 174°56'  

Dump ship's entire track history